sensor_id;sensor_type;location;lat;lon;timestamp;temperature;humidity
34927;DHT22;21132;48.308;14.274;2022-11-12T00:01:22;10.50;68.10
34927;DHT22;21132;48.308;14.274;2022-11-12T00:03:47;10.50;68.10
34927;DHT22;21132;48.308;14.274;2022-11-12T00:06:13;10.50;68.00
34927;DHT22;21132;48.308;14.274;2022-11-12T00:08:39;10.50;68.00
34927;DHT22;21132;48.308;14.274;2022-11-12T00:11:05;10.50;68.10
34927;DHT22;21132;48.308;14.274;2022-11-12T00:13:31;10.50;68.10
34927;DHT22;21132;48.308;14.274;2022-11-12T00:15:57;10.40;67.90
34927;DHT22;21132;48.308;14.274;2022-11-12T00:18:23;10.40;67.80
34927;DHT22;21132;48.308;14.274;2022-11-12T00:20:49;10.40;67.90
34927;DHT22;21132;48.308;14.274;2022-11-12T00:23:15;10.40;67.90
34927;DHT22;21132;48.308;14.274;2022-11-12T00:25:41;10.40;68.00
34927;DHT22;21132;48.308;14.274;2022-11-12T00:28:08;10.30;67.90
34927;DHT22;21132;48.308;14.274;2022-11-12T00:30:37;10.30;68.00
34927;DHT22;21132;48.308;14.274;2022-11-12T00:33:04;10.40;68.20
34927;DHT22;21132;48.308;14.274;2022-11-12T00:35:31;10.40;68.30
34927;DHT22;21132;48.308;14.274;2022-11-12T00:37:57;10.40;68.40
34927;DHT22;21132;48.308;14.274;2022-11-12T00:40:24;10.40;68.50
34927;DHT22;21132;48.308;14.274;2022-11-12T00:42:51;10.40;68.50
34927;DHT22;21132;48.308;14.274;2022-11-12T00:45:17;10.40;68.60
34927;DHT22;21132;48.308;14.274;2022-11-12T00:47:43;10.40;68.60
34927;DHT22;21132;48.308;14.274;2022-11-12T00:50:10;10.40;68.80
34927;DHT22;21132;48.308;14.274;2022-11-12T00:52:35;10.30;68.80
34927;DHT22;21132;48.308;14.274;2022-11-12T00:55:02;10.30;69.00
34927;DHT22;21132;48.308;14.274;2022-11-12T00:57:27;10.30;69.10
34927;DHT22;21132;48.308;14.274;2022-11-12T00:59:53;10.30;69.30
34927;DHT22;21132;48.308;14.274;2022-11-12T01:02:19;10.30;69.30
34927;DHT22;21132;48.308;14.274;2022-11-12T01:04:47;10.30;69.30
34927;DHT22;21132;48.308;14.274;2022-11-12T01:07:13;10.30;69.30
34927;DHT22;21132;48.308;14.274;2022-11-12T01:09:40;10.30;69.40
34927;DHT22;21132;48.308;14.274;2022-11-12T01:12:06;10.30;69.40
34927;DHT22;21132;48.308;14.274;2022-11-12T01:14:32;10.30;69.40
34927;DHT22;21132;48.308;14.274;2022-11-12T01:16:58;10.30;69.40
34927;DHT22;21132;48.308;14.274;2022-11-12T01:19:24;10.20;70.10
34927;DHT22;21132;48.308;14.274;2022-11-12T01:21:50;10.20;69.30
34927;DHT22;21132;48.308;14.274;2022-11-12T01:24:15;10.20;69.40
34927;DHT22;21132;48.308;14.274;2022-11-12T01:26:41;10.20;69.50
34927;DHT22;21132;48.308;14.274;2022-11-12T01:29:07;10.20;69.60
34927;DHT22;21132;48.308;14.274;2022-11-12T01:31:35;10.20;69.60
34927;DHT22;21132;48.308;14.274;2022-11-12T01:34:07;10.20;69.70
34927;DHT22;21132;48.308;14.274;2022-11-12T01:36:37;10.20;69.60
34927;DHT22;21132;48.308;14.274;2022-11-12T01:39:05;10.20;69.40
34927;DHT22;21132;48.308;14.274;2022-11-12T01:41:33;10.20;69.20
34927;DHT22;21132;48.308;14.274;2022-11-12T01:46:32;10.10;69.10
34927;DHT22;21132;48.308;14.274;2022-11-12T01:49:02;10.10;69.10
34927;DHT22;21132;48.308;14.274;2022-11-12T01:51:38;10.00;69.20
34927;DHT22;21132;48.308;14.274;2022-11-12T01:54:08;10.00;69.30
34927;DHT22;21132;48.308;14.274;2022-11-12T01:56:35;10.00;69.30
34927;DHT22;21132;48.308;14.274;2022-11-12T01:59:09;10.00;70.20
34927;DHT22;21132;48.308;14.274;2022-11-12T02:01:37;9.90;69.30
34927;DHT22;21132;48.308;14.274;2022-11-12T02:04:03;10.00;69.40
34927;DHT22;21132;48.308;14.274;2022-11-12T02:06:29;9.90;69.20
34927;DHT22;21132;48.308;14.274;2022-11-12T02:08:56;9.90;69.10
34927;DHT22;21132;48.308;14.274;2022-11-12T02:11:22;9.90;69.00
34927;DHT22;21132;48.308;14.274;2022-11-12T02:13:50;9.80;68.90
34927;DHT22;21132;48.308;14.274;2022-11-12T02:18:57;9.80;68.80
34927;DHT22;21132;48.308;14.274;2022-11-12T02:21:24;9.80;68.80
34927;DHT22;21132;48.308;14.274;2022-11-12T02:26:51;9.70;68.80
34927;DHT22;21132;48.308;14.274;2022-11-12T02:29:18;9.70;68.80
34927;DHT22;21132;48.308;14.274;2022-11-12T02:31:44;9.70;68.90
34927;DHT22;21132;48.308;14.274;2022-11-12T02:34:09;9.70;69.00
34927;DHT22;21132;48.308;14.274;2022-11-12T02:36:35;9.70;69.00
34927;DHT22;21132;48.308;14.274;2022-11-12T02:39:02;9.70;69.10
34927;DHT22;21132;48.308;14.274;2022-11-12T02:41:28;9.70;69.10
34927;DHT22;21132;48.308;14.274;2022-11-12T02:43:54;9.80;69.00
34927;DHT22;21132;48.308;14.274;2022-11-12T02:46:19;9.80;69.00
34927;DHT22;21132;48.308;14.274;2022-11-12T02:48:45;9.70;68.90
34927;DHT22;21132;48.308;14.274;2022-11-12T02:51:11;9.70;68.80
34927;DHT22;21132;48.308;14.274;2022-11-12T02:53:37;9.70;68.70
34927;DHT22;21132;48.308;14.274;2022-11-12T02:56:06;9.80;68.80
34927;DHT22;21132;48.308;14.274;2022-11-12T02:58:32;9.80;68.60
34927;DHT22;21132;48.308;14.274;2022-11-12T03:00:58;9.80;68.50
34927;DHT22;21132;48.308;14.274;2022-11-12T03:03:24;9.80;68.50
34927;DHT22;21132;48.308;14.274;2022-11-12T03:06:00;9.80;68.60
34927;DHT22;21132;48.308;14.274;2022-11-12T03:08:26;9.80;68.80
34927;DHT22;21132;48.308;14.274;2022-11-12T03:10:52;9.80;68.80
34927;DHT22;21132;48.308;14.274;2022-11-12T03:13:19;9.80;68.90
34927;DHT22;21132;48.308;14.274;2022-11-12T03:15:46;9.80;69.00
34927;DHT22;21132;48.308;14.274;2022-11-12T03:18:11;9.80;68.90
34927;DHT22;21132;48.308;14.274;2022-11-12T03:20:37;9.80;68.90
34927;DHT22;21132;48.308;14.274;2022-11-12T03:23:08;9.80;68.90
34927;DHT22;21132;48.308;14.274;2022-11-12T03:25:35;9.70;68.70
34927;DHT22;21132;48.308;14.274;2022-11-12T03:28:06;9.70;68.60
34927;DHT22;21132;48.308;14.274;2022-11-12T03:30:34;9.70;68.60
34927;DHT22;21132;48.308;14.274;2022-11-12T03:33:01;9.70;68.50
34927;DHT22;21132;48.308;14.274;2022-11-12T03:35:27;9.70;68.50
34927;DHT22;21132;48.308;14.274;2022-11-12T03:37:52;9.70;68.50
34927;DHT22;21132;48.308;14.274;2022-11-12T03:40:19;9.70;68.50
34927;DHT22;21132;48.308;14.274;2022-11-12T03:42:49;9.60;68.50
34927;DHT22;21132;48.308;14.274;2022-11-12T03:45:16;9.60;68.60
34927;DHT22;21132;48.308;14.274;2022-11-12T03:47:47;9.70;68.60
34927;DHT22;21132;48.308;14.274;2022-11-12T03:50:14;9.60;68.40
34927;DHT22;21132;48.308;14.274;2022-11-12T03:52:48;9.70;68.40
34927;DHT22;21132;48.308;14.274;2022-11-12T03:55:15;9.60;68.10
34927;DHT22;21132;48.308;14.274;2022-11-12T03:57:42;9.60;67.80
34927;DHT22;21132;48.308;14.274;2022-11-12T04:00:10;9.60;67.60
34927;DHT22;21132;48.308;14.274;2022-11-12T04:02:37;9.50;67.40
34927;DHT22;21132;48.308;14.274;2022-11-12T04:05:04;9.50;67.40
34927;DHT22;21132;48.308;14.274;2022-11-12T04:07:49;9.40;67.30
34927;DHT22;21132;48.308;14.274;2022-11-12T04:10:34;9.40;68.00
34927;DHT22;21132;48.308;14.274;2022-11-12T04:13:00;9.40;67.40
34927;DHT22;21132;48.308;14.274;2022-11-12T04:15:44;9.40;67.50
34927;DHT22;21132;48.308;14.274;2022-11-12T04:18:30;9.40;67.60
34927;DHT22;21132;48.308;14.274;2022-11-12T04:21:14;9.30;67.50
34927;DHT22;21132;48.308;14.274;2022-11-12T04:23:58;9.40;67.50
34927;DHT22;21132;48.308;14.274;2022-11-12T04:26:24;9.30;67.50
34927;DHT22;21132;48.308;14.274;2022-11-12T04:28:50;9.30;67.50
34927;DHT22;21132;48.308;14.274;2022-11-12T04:31:34;9.40;67.60
34927;DHT22;21132;48.308;14.274;2022-11-12T04:34:00;9.30;67.60
34927;DHT22;21132;48.308;14.274;2022-11-12T04:36:46;9.40;67.70
34927;DHT22;21132;48.308;14.274;2022-11-12T04:39:11;9.30;67.60
34927;DHT22;21132;48.308;14.274;2022-11-12T04:41:37;9.30;67.50
34927;DHT22;21132;48.308;14.274;2022-11-12T04:44:21;9.30;67.30
34927;DHT22;21132;48.308;14.274;2022-11-12T04:47:06;9.30;67.50
34927;DHT22;21132;48.308;14.274;2022-11-12T04:49:31;9.30;67.20
34927;DHT22;21132;48.308;14.274;2022-11-12T04:51:57;9.20;67.10
34927;DHT22;21132;48.308;14.274;2022-11-12T04:54:29;9.20;67.20
34927;DHT22;21132;48.308;14.274;2022-11-12T04:56:55;9.10;67.30
34927;DHT22;21132;48.308;14.274;2022-11-12T04:59:20;9.10;68.20
34927;DHT22;21132;48.308;14.274;2022-11-12T05:01:46;9.10;67.40
34927;DHT22;21132;48.308;14.274;2022-11-12T05:04:12;9.10;67.50
34927;DHT22;21132;48.308;14.274;2022-11-12T05:06:38;9.10;67.70
34927;DHT22;21132;48.308;14.274;2022-11-12T05:09:17;9.10;67.80
34927;DHT22;21132;48.308;14.274;2022-11-12T05:11:43;9.10;67.80
34927;DHT22;21132;48.308;14.274;2022-11-12T05:14:08;9.10;67.70
34927;DHT22;21132;48.308;14.274;2022-11-12T05:16:34;9.10;68.50
34927;DHT22;21132;48.308;14.274;2022-11-12T05:19:00;9.10;67.80
34927;DHT22;21132;48.308;14.274;2022-11-12T05:21:26;9.20;68.00
34927;DHT22;21132;48.308;14.274;2022-11-12T05:24:10;9.20;68.00
34927;DHT22;21132;48.308;14.274;2022-11-12T05:26:35;9.20;68.10
34927;DHT22;21132;48.308;14.274;2022-11-12T05:29:01;9.20;68.20
34927;DHT22;21132;48.308;14.274;2022-11-12T05:31:27;9.30;68.20
34927;DHT22;21132;48.308;14.274;2022-11-12T05:33:53;9.30;68.10
34927;DHT22;21132;48.308;14.274;2022-11-12T05:36:18;9.30;68.20
34927;DHT22;21132;48.308;14.274;2022-11-12T05:38:44;9.30;68.20
34927;DHT22;21132;48.308;14.274;2022-11-12T05:41:10;9.30;68.30
34927;DHT22;21132;48.308;14.274;2022-11-12T05:43:36;9.30;68.40
34927;DHT22;21132;48.308;14.274;2022-11-12T05:46:01;9.30;68.60
34927;DHT22;21132;48.308;14.274;2022-11-12T05:48:27;9.30;68.70
34927;DHT22;21132;48.308;14.274;2022-11-12T05:50:53;9.30;68.80
34927;DHT22;21132;48.308;14.274;2022-11-12T05:53:19;9.30;68.80
34927;DHT22;21132;48.308;14.274;2022-11-12T05:55:45;9.40;68.90
34927;DHT22;21132;48.308;14.274;2022-11-12T05:58:10;9.40;69.00
34927;DHT22;21132;48.308;14.274;2022-11-12T06:00:36;9.40;69.20
34927;DHT22;21132;48.308;14.274;2022-11-12T06:03:10;9.40;69.30
34927;DHT22;21132;48.308;14.274;2022-11-12T06:05:36;9.40;69.40
34927;DHT22;21132;48.308;14.274;2022-11-12T06:08:03;9.40;69.50
34927;DHT22;21132;48.308;14.274;2022-11-12T06:10:33;9.40;69.50
34927;DHT22;21132;48.308;14.274;2022-11-12T06:12:59;9.40;69.50
34927;DHT22;21132;48.308;14.274;2022-11-12T06:15:25;9.40;69.60
34927;DHT22;21132;48.308;14.274;2022-11-12T06:17:53;9.40;69.50
34927;DHT22;21132;48.308;14.274;2022-11-12T06:20:20;9.40;69.40
34927;DHT22;21132;48.308;14.274;2022-11-12T06:22:47;9.40;69.40
34927;DHT22;21132;48.308;14.274;2022-11-12T06:25:12;9.40;69.30
34927;DHT22;21132;48.308;14.274;2022-11-12T06:27:39;9.40;69.40
34927;DHT22;21132;48.308;14.274;2022-11-12T06:30:06;9.40;69.30
34927;DHT22;21132;48.308;14.274;2022-11-12T06:32:32;9.40;69.30
34927;DHT22;21132;48.308;14.274;2022-11-12T06:34:58;9.40;69.20
34927;DHT22;21132;48.308;14.274;2022-11-12T06:37:23;9.40;69.30
34927;DHT22;21132;48.308;14.274;2022-11-12T06:39:49;9.40;69.20
34927;DHT22;21132;48.308;14.274;2022-11-12T06:42:15;9.40;69.30
34927;DHT22;21132;48.308;14.274;2022-11-12T06:44:41;9.40;69.30
34927;DHT22;21132;48.308;14.274;2022-11-12T06:47:09;9.40;69.30
34927;DHT22;21132;48.308;14.274;2022-11-12T06:49:35;9.40;69.40
34927;DHT22;21132;48.308;14.274;2022-11-12T06:52:01;9.40;69.50
34927;DHT22;21132;48.308;14.274;2022-11-12T06:54:27;9.40;69.90
34927;DHT22;21132;48.308;14.274;2022-11-12T06:56:53;9.50;69.50
34927;DHT22;21132;48.308;14.274;2022-11-12T06:59:18;9.50;69.50
34927;DHT22;21132;48.308;14.274;2022-11-12T07:01:44;9.50;69.40
34927;DHT22;21132;48.308;14.274;2022-11-12T07:04:10;9.50;69.20
34927;DHT22;21132;48.308;14.274;2022-11-12T07:06:36;9.50;69.00
34927;DHT22;21132;48.308;14.274;2022-11-12T07:09:02;9.60;68.90
34927;DHT22;21132;48.308;14.274;2022-11-12T07:11:28;9.60;68.90
34927;DHT22;21132;48.308;14.274;2022-11-12T07:13:54;9.60;68.80
34927;DHT22;21132;48.308;14.274;2022-11-12T07:16:20;9.60;68.80
34927;DHT22;21132;48.308;14.274;2022-11-12T07:18:48;9.70;68.90
34927;DHT22;21132;48.308;14.274;2022-11-12T07:21:18;9.70;68.90
34927;DHT22;21132;48.308;14.274;2022-11-12T07:23:45;9.70;69.00
34927;DHT22;21132;48.308;14.274;2022-11-12T07:28:46;9.80;69.10
34927;DHT22;21132;48.308;14.274;2022-11-12T07:31:14;9.80;69.00
34927;DHT22;21132;48.308;14.274;2022-11-12T07:33:40;9.80;69.00
34927;DHT22;21132;48.308;14.274;2022-11-12T07:36:09;9.90;68.90
34927;DHT22;21132;48.308;14.274;2022-11-12T07:38:37;9.90;68.90
34927;DHT22;21132;48.308;14.274;2022-11-12T07:41:09;10.00;68.80
34927;DHT22;21132;48.308;14.274;2022-11-12T07:43:36;10.00;68.70
34927;DHT22;21132;48.308;14.274;2022-11-12T07:46:05;10.00;68.60
34927;DHT22;21132;48.308;14.274;2022-11-12T07:48:31;10.10;68.60
34927;DHT22;21132;48.308;14.274;2022-11-12T07:51:06;10.10;68.50
34927;DHT22;21132;48.308;14.274;2022-11-12T07:53:32;10.10;68.20
34927;DHT22;21132;48.308;14.274;2022-11-12T07:56:00;10.10;68.10
34927;DHT22;21132;48.308;14.274;2022-11-12T07:58:27;10.10;68.10
34927;DHT22;21132;48.308;14.274;2022-11-12T08:00:54;10.20;68.40
34927;DHT22;21132;48.308;14.274;2022-11-12T08:03:20;10.20;68.40
34927;DHT22;21132;48.308;14.274;2022-11-12T08:05:47;10.30;68.60
34927;DHT22;21132;48.308;14.274;2022-11-12T08:08:13;10.30;68.80
34927;DHT22;21132;48.308;14.274;2022-11-12T08:10:39;10.40;68.90
34927;DHT22;21132;48.308;14.274;2022-11-12T08:13:04;10.50;68.80
34927;DHT22;21132;48.308;14.274;2022-11-12T08:15:31;10.50;68.60
34927;DHT22;21132;48.308;14.274;2022-11-12T08:17:57;10.60;68.40
34927;DHT22;21132;48.308;14.274;2022-11-12T08:20:22;10.60;68.00
34927;DHT22;21132;48.308;14.274;2022-11-12T08:22:49;10.70;67.90
34927;DHT22;21132;48.308;14.274;2022-11-12T08:25:15;10.70;67.70
34927;DHT22;21132;48.308;14.274;2022-11-12T08:27:41;10.80;67.70
34927;DHT22;21132;48.308;14.274;2022-11-12T08:30:07;10.90;67.90
34927;DHT22;21132;48.308;14.274;2022-11-12T08:32:33;10.90;68.00
34927;DHT22;21132;48.308;14.274;2022-11-12T08:34:58;11.00;67.60
34927;DHT22;21132;48.308;14.274;2022-11-12T08:37:24;11.10;67.60
34927;DHT22;21132;48.308;14.274;2022-11-12T08:39:50;11.10;67.10
34927;DHT22;21132;48.308;14.274;2022-11-12T08:42:16;11.20;66.90
34927;DHT22;21132;48.308;14.274;2022-11-12T08:44:42;11.30;66.50
34927;DHT22;21132;48.308;14.274;2022-11-12T08:47:07;11.30;66.10
34927;DHT22;21132;48.308;14.274;2022-11-12T08:49:33;11.30;65.80
34927;DHT22;21132;48.308;14.274;2022-11-12T08:51:59;11.30;65.90
34927;DHT22;21132;48.308;14.274;2022-11-12T08:54:24;11.30;65.90
34927;DHT22;21132;48.308;14.274;2022-11-12T08:56:50;11.40;65.70
34927;DHT22;21132;48.308;14.274;2022-11-12T08:59:16;11.40;65.60
34927;DHT22;21132;48.308;14.274;2022-11-12T09:01:42;11.40;65.60
34927;DHT22;21132;48.308;14.274;2022-11-12T09:04:08;11.40;65.60
34927;DHT22;21132;48.308;14.274;2022-11-12T09:06:33;11.50;65.20
34927;DHT22;21132;48.308;14.274;2022-11-12T09:08:59;11.50;64.80
34927;DHT22;21132;48.308;14.274;2022-11-12T09:11:25;11.50;64.40
34927;DHT22;21132;48.308;14.274;2022-11-12T09:13:54;11.50;64.40
34927;DHT22;21132;48.308;14.274;2022-11-12T09:16:20;11.50;64.40
34927;DHT22;21132;48.308;14.274;2022-11-12T09:18:46;11.50;64.90
34927;DHT22;21132;48.308;14.274;2022-11-12T09:21:12;11.50;64.60
34927;DHT22;21132;48.308;14.274;2022-11-12T09:23:38;11.60;65.00
34927;DHT22;21132;48.308;14.274;2022-11-12T09:26:05;11.70;64.70
34927;DHT22;21132;48.308;14.274;2022-11-12T09:28:31;11.80;64.80
34927;DHT22;21132;48.308;14.274;2022-11-12T09:30:57;11.90;64.70
34927;DHT22;21132;48.308;14.274;2022-11-12T09:33:33;12.00;64.30
34927;DHT22;21132;48.308;14.274;2022-11-12T09:36:00;12.00;64.20
34927;DHT22;21132;48.308;14.274;2022-11-12T09:38:26;12.10;64.70
34927;DHT22;21132;48.308;14.274;2022-11-12T09:43:33;12.20;62.40
34927;DHT22;21132;48.308;14.274;2022-11-12T09:49:36;12.30;62.10
34927;DHT22;21132;48.308;14.274;2022-11-12T09:52:09;12.30;62.60
34927;DHT22;21132;48.308;14.274;2022-11-12T09:54:37;12.40;62.80
34927;DHT22;21132;48.308;14.274;2022-11-12T09:57:04;12.50;63.00
34927;DHT22;21132;48.308;14.274;2022-11-12T09:59:35;12.60;62.60
34927;DHT22;21132;48.308;14.274;2022-11-12T10:05:02;12.70;62.00
34927;DHT22;21132;48.308;14.274;2022-11-12T10:10:30;12.90;61.40
34927;DHT22;21132;48.308;14.274;2022-11-12T10:13:27;12.90;61.10
34927;DHT22;21132;48.308;14.274;2022-11-12T10:24:38;13.00;60.90
34927;DHT22;21132;48.308;14.274;2022-11-12T10:27:21;13.10;61.00
34927;DHT22;21132;48.308;14.274;2022-11-12T10:30:05;13.10;60.90
34927;DHT22;21132;48.308;14.274;2022-11-12T10:32:33;13.10;60.80
34927;DHT22;21132;48.308;14.274;2022-11-12T10:35:01;13.10;60.50
34927;DHT22;21132;48.308;14.274;2022-11-12T10:39:58;13.10;60.10
34927;DHT22;21132;48.308;14.274;2022-11-12T10:42:24;13.10;60.30
34927;DHT22;21132;48.308;14.274;2022-11-12T10:44:50;13.10;60.40
34927;DHT22;21132;48.308;14.274;2022-11-12T10:47:29;13.10;60.40
34927;DHT22;21132;48.308;14.274;2022-11-12T10:50:41;13.10;60.20
34927;DHT22;21132;48.308;14.274;2022-11-12T10:53:10;13.20;60.60
34927;DHT22;21132;48.308;14.274;2022-11-12T10:55:39;13.20;60.50
34927;DHT22;21132;48.308;14.274;2022-11-12T10:58:19;13.20;60.40
34927;DHT22;21132;48.308;14.274;2022-11-12T11:01:05;13.30;60.20
34927;DHT22;21132;48.308;14.274;2022-11-12T11:03:49;13.30;60.30
34927;DHT22;21132;48.308;14.274;2022-11-12T11:06:24;13.40;60.30
34927;DHT22;21132;48.308;14.274;2022-11-12T11:08:52;13.40;60.10
34927;DHT22;21132;48.308;14.274;2022-11-12T11:13:48;13.50;60.00
34927;DHT22;21132;48.308;14.274;2022-11-12T11:16:21;13.50;60.10
34927;DHT22;21132;48.308;14.274;2022-11-12T11:29:21;13.90;59.80
34927;DHT22;21132;48.308;14.274;2022-11-12T11:32:27;13.90;59.80
34927;DHT22;21132;48.308;14.274;2022-11-12T11:35:08;14.00;59.70
34927;DHT22;21132;48.308;14.274;2022-11-12T11:45:35;14.20;59.20
34927;DHT22;21132;48.308;14.274;2022-11-12T11:56:31;14.60;58.50
34927;DHT22;21132;48.308;14.274;2022-11-12T11:59:33;14.70;58.50
34927;DHT22;21132;48.308;14.274;2022-11-12T12:02:25;14.80;58.50
34927;DHT22;21132;48.308;14.274;2022-11-12T12:05:03;14.80;58.40
34927;DHT22;21132;48.308;14.274;2022-11-12T12:07:41;14.90;58.00
34927;DHT22;21132;48.308;14.274;2022-11-12T12:10:24;14.90;58.00
34927;DHT22;21132;48.308;14.274;2022-11-12T12:18:30;14.80;57.60
34927;DHT22;21132;48.308;14.274;2022-11-12T12:21:10;14.80;57.80
34927;DHT22;21132;48.308;14.274;2022-11-12T12:29:17;14.70;58.10
34927;DHT22;21132;48.308;14.274;2022-11-12T12:32:32;14.80;58.20
34927;DHT22;21132;48.308;14.274;2022-11-12T12:34:38;14.80;58.10
34927;DHT22;21132;48.308;14.274;2022-11-12T12:37:22;14.80;58.10
34927;DHT22;21132;48.308;14.274;2022-11-12T12:40:22;14.70;58.10
34927;DHT22;21132;48.308;14.274;2022-11-12T12:43:16;14.70;58.20
34927;DHT22;21132;48.308;14.274;2022-11-12T12:45:43;14.70;58.50
34927;DHT22;21132;48.308;14.274;2022-11-12T12:48:26;14.60;58.60
34927;DHT22;21132;48.308;14.274;2022-11-12T12:50:54;14.60;58.70
34927;DHT22;21132;48.308;14.274;2022-11-12T12:55:58;14.70;58.80
34927;DHT22;21132;48.308;14.274;2022-11-12T12:58:44;14.60;58.80
34927;DHT22;21132;48.308;14.274;2022-11-12T13:04:05;14.60;58.70
34927;DHT22;21132;48.308;14.274;2022-11-12T13:06:59;14.60;58.70
34927;DHT22;21132;48.308;14.274;2022-11-12T13:09:25;14.50;58.60
34927;DHT22;21132;48.308;14.274;2022-11-12T13:11:55;14.50;58.70
34927;DHT22;21132;48.308;14.274;2022-11-12T13:16:57;14.40;59.00
34927;DHT22;21132;48.308;14.274;2022-11-12T13:19:29;14.40;59.20
34927;DHT22;21132;48.308;14.274;2022-11-12T13:25:03;14.40;59.40
34927;DHT22;21132;48.308;14.274;2022-11-12T13:41:10;14.30;59.20
34927;DHT22;21132;48.308;14.274;2022-11-12T13:43:42;14.20;59.00
34927;DHT22;21132;48.308;14.274;2022-11-12T13:51:36;13.90;58.90
34927;DHT22;21132;48.308;14.274;2022-11-12T13:54:00;13.80;59.10
34927;DHT22;21132;48.308;14.274;2022-11-12T13:56:31;13.80;59.50
34927;DHT22;21132;48.308;14.274;2022-11-12T13:59:16;13.70;59.80
34927;DHT22;21132;48.308;14.274;2022-11-12T14:01:43;13.60;60.00
34927;DHT22;21132;48.308;14.274;2022-11-12T14:04:14;13.60;60.00
34927;DHT22;21132;48.308;14.274;2022-11-12T14:06:45;13.50;60.10
34927;DHT22;21132;48.308;14.274;2022-11-12T14:17:25;13.30;60.80
34927;DHT22;21132;48.308;14.274;2022-11-12T14:22:43;13.30;61.00
34927;DHT22;21132;48.308;14.274;2022-11-12T14:25:20;13.20;61.10
34927;DHT22;21132;48.308;14.274;2022-11-12T14:27:51;13.20;61.30
34927;DHT22;21132;48.308;14.274;2022-11-12T14:30:23;13.10;61.30
34927;DHT22;21132;48.308;14.274;2022-11-12T14:32:52;13.10;61.40
34927;DHT22;21132;48.308;14.274;2022-11-12T14:38:16;13.10;61.70
34927;DHT22;21132;48.308;14.274;2022-11-12T14:40:52;13.00;61.80
34927;DHT22;21132;48.308;14.274;2022-11-12T14:43:25;13.00;61.90
34927;DHT22;21132;48.308;14.274;2022-11-12T14:45:55;13.00;62.00
34927;DHT22;21132;48.308;14.274;2022-11-12T14:48:21;12.90;62.00
34927;DHT22;21132;48.308;14.274;2022-11-12T14:50:50;12.90;62.10
34927;DHT22;21132;48.308;14.274;2022-11-12T14:53:30;12.80;62.20
34927;DHT22;21132;48.308;14.274;2022-11-12T14:55:58;12.80;62.40
34927;DHT22;21132;48.308;14.274;2022-11-12T14:58:25;12.80;62.40
34927;DHT22;21132;48.308;14.274;2022-11-12T15:00:53;12.80;62.40
34927;DHT22;21132;48.308;14.274;2022-11-12T15:03:24;12.70;62.40
34927;DHT22;21132;48.308;14.274;2022-11-12T15:08:34;12.60;62.60
34927;DHT22;21132;48.308;14.274;2022-11-12T15:12:07;12.50;62.60
34927;DHT22;21132;48.308;14.274;2022-11-12T15:14:20;12.50;62.70
34927;DHT22;21132;48.308;14.274;2022-11-12T15:16:46;12.40;62.90
34927;DHT22;21132;48.308;14.274;2022-11-12T15:21:45;12.30;63.00
34927;DHT22;21132;48.308;14.274;2022-11-12T15:31:28;12.00;63.70
34927;DHT22;21132;48.308;14.274;2022-11-12T15:33:54;12.00;63.90
34927;DHT22;21132;48.308;14.274;2022-11-12T15:36:40;11.90;64.00
34927;DHT22;21132;48.308;14.274;2022-11-12T15:39:11;11.90;64.20
34927;DHT22;21132;48.308;14.274;2022-11-12T15:41:38;11.80;64.40
34927;DHT22;21132;48.308;14.274;2022-11-12T15:44:06;11.80;64.60
34927;DHT22;21132;48.308;14.274;2022-11-12T15:46:32;11.80;64.70
34927;DHT22;21132;48.308;14.274;2022-11-12T15:48:58;11.70;64.90
34927;DHT22;21132;48.308;14.274;2022-11-12T15:51:24;11.70;65.00
34927;DHT22;21132;48.308;14.274;2022-11-12T15:53:49;11.70;65.10
34927;DHT22;21132;48.308;14.274;2022-11-12T15:56:17;11.60;65.20
34927;DHT22;21132;48.308;14.274;2022-11-12T15:58:46;11.70;65.50
34927;DHT22;21132;48.308;14.274;2022-11-12T16:01:12;11.70;65.60
34927;DHT22;21132;48.308;14.274;2022-11-12T16:03:37;11.70;65.80
34927;DHT22;21132;48.308;14.274;2022-11-12T16:06:04;11.70;65.80
34927;DHT22;21132;48.308;14.274;2022-11-12T16:08:29;11.70;65.90
34927;DHT22;21132;48.308;14.274;2022-11-12T16:10:55;11.70;66.00
34927;DHT22;21132;48.308;14.274;2022-11-12T16:13:30;11.80;66.10
34927;DHT22;21132;48.308;14.274;2022-11-12T16:16:03;11.80;66.10
34927;DHT22;21132;48.308;14.274;2022-11-12T16:18:31;11.80;66.20
34927;DHT22;21132;48.308;14.274;2022-11-12T16:20:57;11.80;66.20
34927;DHT22;21132;48.308;14.274;2022-11-12T16:23:23;11.90;66.30
34927;DHT22;21132;48.308;14.274;2022-11-12T16:25:49;11.90;66.40
34927;DHT22;21132;48.308;14.274;2022-11-12T16:28:16;11.90;66.40
34927;DHT22;21132;48.308;14.274;2022-11-12T16:30:44;11.90;66.30
34927;DHT22;21132;48.308;14.274;2022-11-12T16:33:11;11.90;66.30
34927;DHT22;21132;48.308;14.274;2022-11-12T16:35:38;11.90;66.30
34927;DHT22;21132;48.308;14.274;2022-11-12T16:38:12;11.90;66.40
34927;DHT22;21132;48.308;14.274;2022-11-12T16:40:40;11.90;66.40
34927;DHT22;21132;48.308;14.274;2022-11-12T16:43:06;11.90;66.40
34927;DHT22;21132;48.308;14.274;2022-11-12T16:45:39;11.90;66.40
34927;DHT22;21132;48.308;14.274;2022-11-12T16:48:10;11.90;66.40
34927;DHT22;21132;48.308;14.274;2022-11-12T16:50:36;12.00;66.10
34927;DHT22;21132;48.308;14.274;2022-11-12T16:53:01;12.00;66.10
34927;DHT22;21132;48.308;14.274;2022-11-12T16:55:28;12.00;66.20
34927;DHT22;21132;48.308;14.274;2022-11-12T16:57:54;12.00;66.70
34927;DHT22;21132;48.308;14.274;2022-11-12T17:00:20;12.00;66.30
34927;DHT22;21132;48.308;14.274;2022-11-12T17:02:46;12.00;66.30
34927;DHT22;21132;48.308;14.274;2022-11-12T17:05:15;12.00;66.40
34927;DHT22;21132;48.308;14.274;2022-11-12T17:07:42;12.00;66.40
34927;DHT22;21132;48.308;14.274;2022-11-12T17:10:08;12.00;66.40
34927;DHT22;21132;48.308;14.274;2022-11-12T17:12:34;12.00;66.50
34927;DHT22;21132;48.308;14.274;2022-11-12T17:15:00;12.00;66.50
34927;DHT22;21132;48.308;14.274;2022-11-12T17:17:26;12.00;66.50
34927;DHT22;21132;48.308;14.274;2022-11-12T17:19:52;12.10;66.60
34927;DHT22;21132;48.308;14.274;2022-11-12T17:22:18;12.10;66.60
34927;DHT22;21132;48.308;14.274;2022-11-12T17:24:45;12.10;66.60
34927;DHT22;21132;48.308;14.274;2022-11-12T17:27:11;12.10;66.40
34927;DHT22;21132;48.308;14.274;2022-11-12T17:29:37;12.10;66.40
34927;DHT22;21132;48.308;14.274;2022-11-12T17:32:03;12.00;66.30
34927;DHT22;21132;48.308;14.274;2022-11-12T17:34:29;12.00;66.40
34927;DHT22;21132;48.308;14.274;2022-11-12T17:36:56;12.00;66.50
34927;DHT22;21132;48.308;14.274;2022-11-12T17:39:22;11.90;66.40
34927;DHT22;21132;48.308;14.274;2022-11-12T17:41:48;11.90;66.50
34927;DHT22;21132;48.308;14.274;2022-11-12T17:44:18;11.80;66.50